Time;durP1;ratioP1;P1;durP2;ratioP2;P2;SDS_P1;SDS_P2;PMS_P1;PMS_P2;Temp;Humidity;BMP_temperature;BMP_pressure;BME280_temperature;BME280_humidity;BME280_pressure;Samples;Min_cycle;Max_cycle;Signal;HPM_P1;HPM_P2
2023/10/24 00:02:11;;;;;;;;;;;13.60;59.70;;;;;;4637313;30;115118;-83
2023/10/24 00:04:39;;;;;;;;;;;13.60;59.60;;;;;;4650454;30;114411;-82
2023/10/24 00:07:06;;;;;;;;;;;13.60;59.70;;;;;;4637394;30;114912;-82
2023/10/24 00:09:33;;;;;;;;;;;13.60;59.70;;;;;;4636472;30;115267;-81
2023/10/24 00:12:01;;;;;;;;;;;13.70;59.70;;;;;;4637084;30;114321;-81
2023/10/24 00:14:28;;;;;;;;;;;13.70;59.70;;;;;;4637265;30;114366;-81
2023/10/24 00:16:55;;;;;;;;;;;13.70;59.70;;;;;;4636115;30;116243;-82
2023/10/24 00:19:22;;;;;;;;;;;13.70;59.60;;;;;;4635166;30;114676;-82
2023/10/24 00:21:49;;;;;;;;;;;13.70;59.60;;;;;;4636873;30;114428;-81
2023/10/24 00:24:16;;;;;;;;;;;13.70;59.50;;;;;;4650435;30;114424;-83
2023/10/24 00:26:43;;;;;;;;;;;13.60;59.70;;;;;;4636472;30;115109;-82
2023/10/24 00:29:10;;;;;;;;;;;13.60;59.70;;;;;;4636262;30;114640;-83
2023/10/24 00:31:38;;;;;;;;;;;13.70;59.70;;;;;;4644114;30;114638;-82
2023/10/24 00:34:08;;;;;;;;;;;13.70;59.80;;;;;;4638558;30;114565;-81
2023/10/24 00:36:39;;;;;;;;;;;13.70;59.80;;;;;;4636422;30;115016;-81
2023/10/24 00:39:08;;;;;;;;;;;13.70;59.70;;;;;;4636916;30;117097;-82
2023/10/24 00:41:35;;;;;;;;;;;13.70;59.70;;;;;;4650747;30;114494;-83
2023/10/24 00:44:02;;;;;;;;;;;13.70;59.70;;;;;;4636559;30;114404;-81
2023/10/24 00:46:29;;;;;;;;;;;13.60;59.60;;;;;;4648875;30;114482;-82
2023/10/24 00:48:57;;;;;;;;;;;13.70;59.50;;;;;;4634915;30;114702;-82
2023/10/24 00:51:24;;;;;;;;;;;13.60;59.60;;;;;;4649974;30;114574;-83
2023/10/24 00:53:51;;;;;;;;;;;13.70;59.60;;;;;;4621176;30;114616;-82
2023/10/24 00:56:19;;;;;;;;;;;13.70;59.70;;;;;;4635066;30;115011;-82
2023/10/24 00:58:48;;;;;;;;;;;13.70;59.60;;;;;;4635045;30;114936;-83
2023/10/24 01:01:15;;;;;;;;;;;13.70;59.60;;;;;;4649870;30;114735;-83
2023/10/24 01:03:42;;;;;;;;;;;13.70;59.60;;;;;;4650345;30;114599;-81
2023/10/24 01:06:09;;;;;;;;;;;13.70;59.60;;;;;;4648686;30;116355;-82
2023/10/24 01:08:37;;;;;;;;;;;13.70;59.60;;;;;;4648390;30;116015;-81
2023/10/24 01:11:06;;;;;;;;;;;13.70;59.60;;;;;;4635082;30;115262;-82
2023/10/24 01:13:34;;;;;;;;;;;13.70;59.60;;;;;;4636458;30;114685;-83
2023/10/24 01:16:01;;;;;;;;;;;13.60;59.60;;;;;;4635693;30;114834;-82
2023/10/24 01:18:28;;;;;;;;;;;13.70;59.40;;;;;;4635531;30;114727;-83
2023/10/24 01:20:56;;;;;;;;;;;13.60;59.50;;;;;;4636594;30;114618;-83
2023/10/24 01:23:23;;;;;;;;;;;13.60;59.60;;;;;;4636385;30;114513;-80
2023/10/24 01:25:51;;;;;;;;;;;13.60;59.50;;;;;;4648676;30;114606;-81
2023/10/24 01:28:18;;;;;;;;;;;13.50;59.50;;;;;;4648877;30;114817;-82
2023/10/24 01:30:45;;;;;;;;;;;13.60;59.50;;;;;;4620833;30;114692;-83
2023/10/24 01:33:13;;;;;;;;;;;13.60;59.60;;;;;;4634954;30;114635;-82
2023/10/24 01:35:40;;;;;;;;;;;13.60;59.60;;;;;;4647811;30;116128;-82
2023/10/24 01:38:07;;;;;;;;;;;13.60;59.70;;;;;;4648459;30;115077;-81
2023/10/24 01:40:34;;;;;;;;;;;13.60;59.70;;;;;;4634935;30;114494;-82
2023/10/24 01:43:01;;;;;;;;;;;13.70;59.70;;;;;;4635094;30;114568;-81
2023/10/24 01:45:28;;;;;;;;;;;13.70;59.60;;;;;;4654991;30;115053;-81
2023/10/24 01:47:55;;;;;;;;;;;13.60;59.60;;;;;;4665226;30;115198;-81
2023/10/24 01:50:22;;;;;;;;;;;13.60;59.50;;;;;;4653125;30;114529;-81
2023/10/24 01:52:49;;;;;;;;;;;13.60;59.50;;;;;;4653477;30;114297;-81
2023/10/24 01:55:17;;;;;;;;;;;13.60;59.50;;;;;;4651039;30;115197;-81
2023/10/24 01:57:44;;;;;;;;;;;13.60;59.40;;;;;;4652441;30;114585;-81
2023/10/24 02:00:11;;;;;;;;;;;13.50;59.50;;;;;;4665811;30;114518;-82
2023/10/24 02:02:39;;;;;;;;;;;13.50;59.50;;;;;;4651862;30;114379;-82
2023/10/24 02:05:07;;;;;;;;;;;13.50;59.60;;;;;;4652257;30;114942;-81
2023/10/24 02:07:34;;;;;;;;;;;13.50;59.70;;;;;;4651001;30;114824;-82
2023/10/24 02:10:03;;;;;;;;;;;13.60;59.70;;;;;;4653126;30;114461;-81
2023/10/24 02:12:30;;;;;;;;;;;13.60;59.70;;;;;;4666044;30;114357;-81
2023/10/24 02:14:57;;;;;;;;;;;13.60;59.70;;;;;;4652092;30;114897;-81
2023/10/24 02:17:24;;;;;;;;;;;13.60;59.70;;;;;;4652406;30;114964;-81
2023/10/24 02:19:53;;;;;;;;;;;13.60;59.70;;;;;;4662949;30;114638;-83
2023/10/24 02:22:20;;;;;;;;;;;13.60;59.70;;;;;;4667193;30;114286;-82
2023/10/24 02:24:49;;;;;;;;;;;13.70;59.60;;;;;;4652531;30;114934;-82
2023/10/24 02:27:17;;;;;;;;;;;13.70;59.60;;;;;;4652115;30;114684;-82
2023/10/24 02:29:44;;;;;;;;;;;13.70;59.60;;;;;;4652409;30;114389;-83
2023/10/24 02:32:11;;;;;;;;;;;13.70;59.60;;;;;;4652614;30;114269;-82
2023/10/24 02:34:38;;;;;;;;;;;13.70;59.40;;;;;;4665070;30;115116;-83
2023/10/24 02:37:06;;;;;;;;;;;13.60;59.40;;;;;;4651629;30;115747;-82
2023/10/24 02:39:33;;;;;;;;;;;13.60;59.50;;;;;;4652791;30;114534;-81
2023/10/24 02:42:00;;;;;;;;;;;13.60;59.50;;;;;;4653152;30;114488;-82
2023/10/24 02:44:28;;;;;;;;;;;13.60;59.50;;;;;;4651717;30;114943;-80
2023/10/24 02:46:55;;;;;;;;;;;13.60;59.50;;;;;;4664963;30;114631;-81
2023/10/24 02:49:23;;;;;;;;;;;13.60;59.50;;;;;;4652092;30;114619;-81
2023/10/24 02:51:50;;;;;;;;;;;13.60;59.40;;;;;;4652642;30;114516;-82
2023/10/24 02:54:17;;;;;;;;;;;13.60;59.50;;;;;;4650384;30;114970;-82
2023/10/24 02:56:45;;;;;;;;;;;13.60;59.50;;;;;;4664491;30;114672;-82
2023/10/24 02:59:12;;;;;;;;;;;13.60;59.60;;;;;;4652476;30;114386;-82
2023/10/24 03:01:39;;;;;;;;;;;13.60;59.50;;;;;;4651396;30;114388;-82
2023/10/24 03:04:06;;;;;;;;;;;13.60;59.50;;;;;;4651238;30;115200;-82
2023/10/24 03:06:33;;;;;;;;;;;13.60;59.50;;;;;;4652234;30;114686;-82
2023/10/24 03:09:00;;;;;;;;;;;13.50;59.50;;;;;;4668564;30;114451;-82
2023/10/24 03:11:27;;;;;;;;;;;13.60;59.60;;;;;;4653889;30;114460;-81
2023/10/24 03:13:54;;;;;;;;;;;13.50;59.60;;;;;;4653718;30;114950;-83
2023/10/24 03:16:21;;;;;;;;;;;13.60;59.60;;;;;;4654337;30;114829;-82
2023/10/24 03:18:50;;;;;;;;;;;13.60;59.70;;;;;;4667888;30;114578;-81
2023/10/24 03:21:19;;;;;;;;;;;13.60;59.60;;;;;;4655537;30;115001;-81
2023/10/24 03:23:46;;;;;;;;;;;13.60;59.60;;;;;;4667439;30;114951;-82
2023/10/24 03:26:13;;;;;;;;;;;13.60;59.60;;;;;;4654103;30;115052;-82
2023/10/24 03:28:40;;;;;;;;;;;13.50;59.50;;;;;;4653527;30;114622;-82
2023/10/24 03:31:07;;;;;;;;;;;13.50;59.60;;;;;;4668584;30;114266;-82
2023/10/24 03:33:37;;;;;;;;;;;13.50;59.60;;;;;;4667244;30;115978;-83
2023/10/24 03:36:04;;;;;;;;;;;13.50;59.70;;;;;;4654083;30;115113;-82
2023/10/24 03:38:31;;;;;;;;;;;13.60;59.70;;;;;;4653431;30;114503;-81
2023/10/24 03:40:58;;;;;;;;;;;13.50;59.70;;;;;;4654963;30;115287;-83
2023/10/24 03:43:25;;;;;;;;;;;13.60;59.70;;;;;;4653972;30;115611;-82
2023/10/24 03:45:52;;;;;;;;;;;13.60;59.70;;;;;;4653807;30;115094;-82
2023/10/24 03:48:19;;;;;;;;;;;13.60;59.70;;;;;;4654610;30;114493;-82
2023/10/24 03:50:46;;;;;;;;;;;13.60;59.60;;;;;;4654767;30;114569;-82
2023/10/24 03:53:13;;;;;;;;;;;13.60;59.70;;;;;;4652490;30;115183;-83
2023/10/24 03:55:40;;;;;;;;;;;13.60;59.70;;;;;;4652771;30;116554;-82
2023/10/24 03:58:07;;;;;;;;;;;13.60;59.70;;;;;;4654593;30;114449;-84
2023/10/24 04:00:34;;;;;;;;;;;13.60;59.60;;;;;;4653437;30;114583;-81
2023/10/24 04:03:02;;;;;;;;;;;13.60;59.70;;;;;;4652182;30;114921;-81
2023/10/24 04:05:30;;;;;;;;;;;13.60;59.70;;;;;;4654362;30;117195;-81
2023/10/24 04:07:57;;;;;;;;;;;13.70;59.70;;;;;;4659432;30;114557;-82
2023/10/24 04:10:25;;;;;;;;;;;13.70;59.70;;;;;;4668338;30;114741;-82
2023/10/24 04:12:52;;;;;;;;;;;13.70;59.70;;;;;;4653480;30;115023;-81
2023/10/24 04:15:19;;;;;;;;;;;13.70;59.60;;;;;;4666645;30;115819;-81
2023/10/24 04:17:46;;;;;;;;;;;13.60;59.60;;;;;;4652786;30;114282;-81
2023/10/24 04:20:13;;;;;;;;;;;13.60;59.60;;;;;;4667783;30;115173;-82
2023/10/24 04:22:43;;;;;;;;;;;13.60;59.60;;;;;;4666817;30;114833;-81
2023/10/24 04:25:10;;;;;;;;;;;13.60;59.60;;;;;;4637974;30;117481;-81
2023/10/24 04:27:37;;;;;;;;;;;13.60;59.60;;;;;;4652670;30;114467;-81
2023/10/24 04:30:07;;;;;;;;;;;13.60;59.60;;;;;;4652466;30;114692;-81
2023/10/24 04:32:34;;;;;;;;;;;13.60;59.60;;;;;;4666543;30;114607;-81
2023/10/24 04:35:02;;;;;;;;;;;13.50;59.60;;;;;;4653326;30;115234;-81
2023/10/24 04:37:29;;;;;;;;;;;13.50;59.70;;;;;;4653239;30;114652;-81
2023/10/24 04:39:56;;;;;;;;;;;13.60;59.70;;;;;;4641908;30;114584;-81
2023/10/24 04:42:23;;;;;;;;;;;13.60;59.50;;;;;;4631227;30;114995;-81
2023/10/24 04:44:51;;;;;;;;;;;13.40;59.50;;;;;;4638856;30;114677;-81
2023/10/24 04:47:18;;;;;;;;;;;13.50;59.70;;;;;;4640103;30;114430;-82
2023/10/24 04:49:45;;;;;;;;;;;13.50;59.70;;;;;;4637911;30;114636;-82
2023/10/24 04:52:12;;;;;;;;;;;13.50;59.70;;;;;;4654852;30;115205;-82
2023/10/24 04:54:39;;;;;;;;;;;13.50;59.80;;;;;;4646224;30;115229;-83
2023/10/24 04:57:07;;;;;;;;;;;13.50;59.80;;;;;;4640184;30;114729;-83
2023/10/24 04:59:34;;;;;;;;;;;13.50;59.80;;;;;;4644339;30;114446;-82
2023/10/24 05:02:01;;;;;;;;;;;13.60;59.80;;;;;;4644519;30;116816;-82
2023/10/24 05:04:29;;;;;;;;;;;13.50;59.80;;;;;;4640496;30;114652;-82
2023/10/24 05:06:56;;;;;;;;;;;13.50;59.80;;;;;;4626699;30;114627;-83
2023/10/24 05:09:23;;;;;;;;;;;13.50;59.70;;;;;;4637667;30;116891;-82
2023/10/24 05:11:50;;;;;;;;;;;13.50;59.70;;;;;;4644755;30;115063;-81
2023/10/24 05:14:17;;;;;;;;;;;13.50;59.90;;;;;;4657634;30;114932;-81
2023/10/24 05:16:44;;;;;;;;;;;13.50;59.90;;;;;;4638425;30;114973;-82
2023/10/24 05:19:11;;;;;;;;;;;13.50;59.90;;;;;;4640873;30;115192;-82
2023/10/24 05:21:38;;;;;;;;;;;13.50;59.90;;;;;;4634314;30;115049;-82
2023/10/24 05:24:06;;;;;;;;;;;13.50;59.90;;;;;;4635276;30;114703;-82
2023/10/24 05:26:33;;;;;;;;;;;13.60;59.90;;;;;;4634115;30;114716;-81
2023/10/24 05:29:00;;;;;;;;;;;13.60;59.90;;;;;;4635974;30;114570;-81
2023/10/24 05:31:27;;;;;;;;;;;13.60;59.90;;;;;;4620034;30;117214;-82
2023/10/24 05:33:57;;;;;;;;;;;13.60;59.90;;;;;;4648043;30;118713;-81
2023/10/24 05:36:24;;;;;;;;;;;13.60;59.90;;;;;;4628047;30;114427;-81
2023/10/24 05:38:51;;;;;;;;;;;13.60;59.80;;;;;;4640604;30;114462;-81
2023/10/24 05:41:18;;;;;;;;;;;13.60;59.90;;;;;;4642308;30;115505;-82
2023/10/24 05:43:45;;;;;;;;;;;13.60;59.90;;;;;;4644029;30;115252;-82
2023/10/24 05:46:12;;;;;;;;;;;13.60;59.80;;;;;;4639834;30;114927;-82
2023/10/24 05:48:39;;;;;;;;;;;13.60;59.90;;;;;;4644827;30;114393;-82
2023/10/24 05:51:08;;;;;;;;;;;13.60;59.70;;;;;;4643888;30;115546;-83
2023/10/24 05:53:35;;;;;;;;;;;13.60;59.80;;;;;;4638242;30;114709;-82
2023/10/24 05:56:02;;;;;;;;;;;13.60;60.00;;;;;;4644055;30;114539;-82
2023/10/24 05:58:29;;;;;;;;;;;13.60;60.00;;;;;;4635721;30;114659;-81
2023/10/24 06:00:56;;;;;;;;;;;13.60;59.90;;;;;;4646403;30;115618;-83
2023/10/24 06:03:26;;;;;;;;;;;13.70;59.90;;;;;;4633367;30;115141;-81
2023/10/24 06:05:53;;;;;;;;;;;13.70;59.90;;;;;;4634240;30;114986;-82
2023/10/24 06:08:20;;;;;;;;;;;13.70;59.90;;;;;;4633834;30;114557;-80
2023/10/24 06:10:54;;;;;;;;;;;13.80;59.90;;;;;;4632326;30;115026;-83
2023/10/24 06:13:21;;;;;;;;;;;13.80;59.90;;;;;;4633290;30;115839;-81
2023/10/24 06:15:48;;;;;;;;;;;13.90;59.90;;;;;;4634061;30;117216;-84
2023/10/24 06:18:16;;;;;;;;;;;14.00;59.80;;;;;;4634335;30;115262;-84
2023/10/24 06:20:46;;;;;;;;;;;14.10;59.80;;;;;;4645452;30;115451;-83
2023/10/24 06:23:13;;;;;;;;;;;14.20;59.80;;;;;;4635839;30;114734;-83
2023/10/24 06:25:41;;;;;;;;;;;14.20;59.70;;;;;;4647111;30;114634;-83
2023/10/24 06:28:08;;;;;;;;;;;14.30;59.60;;;;;;4633953;30;114475;-83
2023/10/24 06:30:35;;;;;;;;;;;14.30;59.50;;;;;;4632293;30;116854;-84
2023/10/24 06:33:02;;;;;;;;;;;14.30;59.50;;;;;;4632645;30;115466;-83
2023/10/24 06:35:29;;;;;;;;;;;14.40;59.50;;;;;;4633070;30;114748;-83
2023/10/24 06:37:56;;;;;;;;;;;14.40;59.50;;;;;;4635661;30;115120;-82
2023/10/24 06:40:24;;;;;;;;;;;14.50;59.40;;;;;;4635845;30;115009;-82
2023/10/24 06:42:52;;;;;;;;;;;14.60;59.50;;;;;;4644937;30;114700;-83
2023/10/24 06:45:19;;;;;;;;;;;14.70;59.40;;;;;;4632936;30;117117;-83
2023/10/24 06:47:46;;;;;;;;;;;14.70;59.30;;;;;;4648384;30;114402;-83
2023/10/24 06:50:13;;;;;;;;;;;14.80;59.20;;;;;;4634386;30;115807;-83
2023/10/24 06:52:42;;;;;;;;;;;14.90;59.10;;;;;;4634171;30;115208;-84
2023/10/24 06:55:09;;;;;;;;;;;14.90;59.10;;;;;;4634509;30;114501;-82
2023/10/24 06:57:36;;;;;;;;;;;14.90;59.10;;;;;;4635019;30;114511;-82
2023/10/24 07:00:04;;;;;;;;;;;15.00;58.90;;;;;;4633999;30;115116;-82
2023/10/24 07:02:33;;;;;;;;;;;15.00;59.00;;;;;;4632894;30;115206;-82
2023/10/24 07:05:03;;;;;;;;;;;15.10;59.00;;;;;;4635012;30;114413;-82
2023/10/24 07:07:39;;;;;;;;;;;15.20;59.00;;;;;;4633643;30;114432;-81
2023/10/24 07:10:12;;;;;;;;;;;15.30;58.90;;;;;;4633796;30;115050;-81
2023/10/24 07:12:39;;;;;;;;;;;15.40;58.70;;;;;;4632946;30;114790;-83
2023/10/24 07:15:07;;;;;;;;;;;15.40;58.70;;;;;;4635312;30;114354;-83
2023/10/24 07:17:34;;;;;;;;;;;15.50;58.50;;;;;;4633798;30;114569;-82
2023/10/24 07:20:04;;;;;;;;;;;15.60;58.50;;;;;;4647118;30;115109;-81
2023/10/24 07:22:31;;;;;;;;;;;15.70;58.50;;;;;;4634403;30;115462;-81
2023/10/24 07:24:58;;;;;;;;;;;15.70;58.40;;;;;;4635954;30;114838;-82
2023/10/24 07:27:25;;;;;;;;;;;15.80;58.30;;;;;;4635159;30;114429;-83
2023/10/24 07:29:52;;;;;;;;;;;15.80;58.20;;;;;;4633015;30;115516;-83
2023/10/24 07:32:19;;;;;;;;;;;15.90;58.00;;;;;;4633369;30;115165;-84
2023/10/24 07:34:48;;;;;;;;;;;15.80;57.90;;;;;;4634356;30;115044;-82
2023/10/24 07:37:15;;;;;;;;;;;15.80;57.90;;;;;;4633889;30;114490;-83
2023/10/24 07:39:42;;;;;;;;;;;15.90;57.90;;;;;;4617960;30;114893;-82
2023/10/24 07:42:09;;;;;;;;;;;15.90;57.90;;;;;;4636715;30;116045;-83
2023/10/24 07:44:36;;;;;;;;;;;15.90;57.90;;;;;;4653504;30;114453;-82
2023/10/24 07:47:04;;;;;;;;;;;16.00;57.90;;;;;;4635012;30;114257;-84
2023/10/24 07:49:33;;;;;;;;;;;16.00;57.80;;;;;;4634110;30;114958;-82
2023/10/24 07:52:00;;;;;;;;;;;15.90;57.70;;;;;;4646648;30;114835;-82
2023/10/24 07:54:29;;;;;;;;;;;16.00;57.80;;;;;;4634959;30;115395;-81
2023/10/24 07:56:58;;;;;;;;;;;16.00;57.90;;;;;;4648652;30;114670;-82
2023/10/24 07:59:28;;;;;;;;;;;16.00;57.90;;;;;;4635524;30;115792;-83
2023/10/24 08:01:55;;;;;;;;;;;16.00;57.90;;;;;;4634998;30;115290;-82
2023/10/24 08:04:22;;;;;;;;;;;16.00;57.80;;;;;;4637561;30;114455;-82
2023/10/24 08:06:50;;;;;;;;;;;16.00;57.80;;;;;;4637420;30;114385;-84
2023/10/24 08:09:17;;;;;;;;;;;15.90;57.80;;;;;;4636867;30;114885;-83
2023/10/24 08:11:44;;;;;;;;;;;16.00;57.90;;;;;;4635251;30;115838;-83
2023/10/24 08:14:13;;;;;;;;;;;16.00;57.70;;;;;;4637656;30;114482;-83
2023/10/24 08:16:41;;;;;;;;;;;16.00;57.10;;;;;;4637331;30;114483;-84
2023/10/24 08:19:08;;;;;;;;;;;16.00;57.40;;;;;;4636603;30;115946;-84
2023/10/24 08:21:35;;;;;;;;;;;16.00;57.50;;;;;;4637007;30;115280;-84
2023/10/24 08:24:02;;;;;;;;;;;16.10;57.50;;;;;;4637346;30;114653;-85
2023/10/24 08:26:29;;;;;;;;;;;16.20;57.30;;;;;;4637598;30;114416;-84
2023/10/24 08:28:56;;;;;;;;;;;16.20;57.40;;;;;;4636055;30;114961;-84
2023/10/24 08:31:23;;;;;;;;;;;16.30;57.40;;;;;;4634990;30;114710;-84
2023/10/24 08:33:50;;;;;;;;;;;16.40;57.20;;;;;;4635469;30;114642;-84
2023/10/24 08:36:18;;;;;;;;;;;16.40;56.10;;;;;;4637189;30;114483;-82
2023/10/24 08:38:46;;;;;;;;;;;16.30;56.40;;;;;;4636055;30;116052;-82
2023/10/24 08:41:12;;;;;;;;;;;16.30;56.80;;;;;;4636269;30;114614;-83
2023/10/24 08:43:40;;;;;;;;;;;16.30;56.80;;;;;;4649990;30;114457;-81
2023/10/24 08:46:07;;;;;;;;;;;16.30;56.40;;;;;;4649985;30;114438;-82
2023/10/24 08:48:34;;;;;;;;;;;16.30;56.70;;;;;;4634803;30;116108;-83
2023/10/24 08:51:02;;;;;;;;;;;16.30;56.90;;;;;;4636519;30;114792;-85
2023/10/24 08:53:29;;;;;;;;;;;16.40;56.80;;;;;;4649858;30;114512;-83
2023/10/24 08:55:57;;;;;;;;;;;16.50;56.90;;;;;;4649380;30;114373;-82
2023/10/24 08:58:25;;;;;;;;;;;16.60;56.90;;;;;;4634328;30;115464;-82
2023/10/24 09:00:52;;;;;;;;;;;16.60;56.90;;;;;;4648850;30;114596;-82
2023/10/24 09:03:19;;;;;;;;;;;16.70;56.90;;;;;;4636808;30;114390;-82
2023/10/24 09:05:46;;;;;;;;;;;16.80;56.80;;;;;;4635991;30;114410;-82
2023/10/24 09:08:14;;;;;;;;;;;16.90;56.40;;;;;;4648767;30;115234;-83
2023/10/24 09:10:44;;;;;;;;;;;16.90;56.40;;;;;;4635721;30;114652;-83
2023/10/24 09:13:12;;;;;;;;;;;16.90;56.00;;;;;;4636396;30;114601;-83
2023/10/24 09:15:40;;;;;;;;;;;16.90;55.80;;;;;;4635682;30;114479;-84
2023/10/24 09:18:07;;;;;;;;;;;16.90;55.80;;;;;;4635703;30;115253;-83
2023/10/24 09:20:34;;;;;;;;;;;16.80;55.00;;;;;;4634624;30;114599;-84
2023/10/24 09:23:05;;;;;;;;;;;16.70;55.40;;;;;;4636093;30;115041;-83
2023/10/24 09:25:33;;;;;;;;;;;16.60;55.90;;;;;;4649386;30;114352;-83
2023/10/24 09:28:18;;;;;;;;;;;16.50;55.60;;;;;;4648718;30;115119;-83
2023/10/24 09:30:46;;;;;;;;;;;16.50;55.70;;;;;;4633466;30;115980;-84
2023/10/24 09:33:13;;;;;;;;;;;16.50;56.20;;;;;;4642054;30;114453;-82
2023/10/24 09:35:40;;;;;;;;;;;16.50;55.60;;;;;;4636441;30;114399;-84
2023/10/24 09:38:07;;;;;;;;;;;16.60;55.80;;;;;;4648933;30;115044;-83
2023/10/24 09:40:36;;;;;;;;;;;16.70;56.00;;;;;;4636794;30;115232;-85
2023/10/24 09:43:06;;;;;;;;;;;16.80;56.00;;;;;;4635569;30;114489;-83
2023/10/24 09:45:33;;;;;;;;;;;16.80;55.80;;;;;;4635245;30;114707;-83
2023/10/24 09:48:00;;;;;;;;;;;16.80;55.40;;;;;;4648317;30;115585;-81
2023/10/24 09:50:27;;;;;;;;;;;16.90;55.40;;;;;;4635178;30;114567;-83
2023/10/24 09:52:55;;;;;;;;;;;17.00;55.00;;;;;;4635743;30;114594;-83
2023/10/24 09:55:22;;;;;;;;;;;16.90;54.80;;;;;;4634119;30;114753;-83
2023/10/24 09:57:49;;;;;;;;;;;16.90;53.70;;;;;;4634173;30;114861;-83
2023/10/24 10:00:16;;;;;;;;;;;16.80;54.30;;;;;;4646980;30;115730;-83
2023/10/24 10:02:44;;;;;;;;;;;16.90;54.10;;;;;;4633867;30;114415;-83
2023/10/24 10:05:14;;;;;;;;;;;16.90;54.10;;;;;;4648936;30;114563;-84
2023/10/24 10:07:42;;;;;;;;;;;17.00;54.60;;;;;;4635055;30;115124;-84
2023/10/24 10:10:10;;;;;;;;;;;17.00;54.20;;;;;;4633629;30;116986;-83
2023/10/24 10:12:38;;;;;;;;;;;17.10;54.00;;;;;;4633779;30;114606;-84
2023/10/24 10:15:23;;;;;;;;;;;17.20;53.90;;;;;;4647466;30;117163;-84
2023/10/24 10:18:03;;;;;;;;;;;17.20;53.30;;;;;;4631967;30;114888;-84
2023/10/24 10:20:45;;;;;;;;;;;17.20;53.70;;;;;;4644589;30;114838;-81
2023/10/24 10:23:30;;;;;;;;;;;17.30;54.00;;;;;;4633935;30;114649;-82
2023/10/24 10:25:58;;;;;;;;;;;17.40;54.00;;;;;;4634337;30;114560;-83
2023/10/24 10:28:44;;;;;;;;;;;17.40;53.60;;;;;;4634246;30;115113;-82
2023/10/24 10:31:17;;;;;;;;;;;17.40;53.10;;;;;;4647481;30;117981;-82
2023/10/24 10:34:05;;;;;;;;;;;17.30;53.20;;;;;;4634819;30;114730;-82
2023/10/24 10:36:32;;;;;;;;;;;17.20;53.30;;;;;;4647979;30;115479;-81
2023/10/24 10:39:00;;;;;;;;;;;17.20;53.50;;;;;;4632791;30;114996;-83
2023/10/24 10:41:32;;;;;;;;;;;17.20;52.90;;;;;;4647213;30;114663;-83
2023/10/24 10:44:00;;;;;;;;;;;17.20;52.90;;;;;;4635101;30;114465;-81
2023/10/24 10:46:33;;;;;;;;;;;17.20;53.30;;;;;;4634806;30;114560;-82
2023/10/24 10:49:03;;;;;;;;;;;17.20;53.50;;;;;;4646553;30;115978;-84
2023/10/24 10:51:31;;;;;;;;;;;17.30;53.70;;;;;;4647623;30;114636;-82
2023/10/24 10:54:07;;;;;;;;;;;17.40;54.00;;;;;;4630930;30;114418;-83
2023/10/24 10:56:35;;;;;;;;;;;17.50;54.10;;;;;;4618622;30;114695;-82
2023/10/24 10:59:08;;;;;;;;;;;17.60;53.80;;;;;;4616043;30;114951;-81
2023/10/24 11:01:54;;;;;;;;;;;17.70;53.50;;;;;;4629020;30;115220;-82
2023/10/24 11:04:21;;;;;;;;;;;17.60;53.30;;;;;;4648210;30;114693;-83
2023/10/24 11:06:55;;;;;;;;;;;17.60;53.20;;;;;;4658113;30;114626;-83
2023/10/24 11:09:26;;;;;;;;;;;17.70;53.40;;;;;;4634334;30;115023;-83
2023/10/24 11:12:12;;;;;;;;;;;17.70;53.60;;;;;;4632438;30;118217;-83
2023/10/24 11:14:39;;;;;;;;;;;17.70;53.50;;;;;;4635125;30;114569;-84
2023/10/24 11:17:06;;;;;;;;;;;17.80;53.40;;;;;;4648196;30;114614;-84
2023/10/24 11:19:33;;;;;;;;;;;17.90;53.50;;;;;;4634655;30;114329;-82
2023/10/24 11:22:00;;;;;;;;;;;18.00;53.50;;;;;;4634303;30;118074;-82
2023/10/24 11:24:29;;;;;;;;;;;18.00;53.30;;;;;;4633786;30;114733;-82
2023/10/24 11:26:56;;;;;;;;;;;18.00;53.40;;;;;;4638285;30;114708;-84
2023/10/24 11:29:23;;;;;;;;;;;18.00;53.20;;;;;;4666673;30;115020;-84
2023/10/24 11:31:53;;;;;;;;;;;18.10;53.30;;;;;;4653153;30;114659;-82
2023/10/24 11:34:20;;;;;;;;;;;18.10;53.40;;;;;;4653986;30;114683;-83
2023/10/24 11:36:47;;;;;;;;;;;18.20;53.50;;;;;;4655011;30;114427;-83
2023/10/24 11:39:14;;;;;;;;;;;18.20;53.30;;;;;;4654208;30;115562;-82
2023/10/24 11:41:43;;;;;;;;;;;18.20;52.70;;;;;;4653839;30;116581;-82
2023/10/24 11:44:11;;;;;;;;;;;18.20;52.60;;;;;;4642650;30;114334;-81
2023/10/24 11:46:39;;;;;;;;;;;18.20;52.70;;;;;;4638377;30;114414;-82
2023/10/24 11:49:06;;;;;;;;;;;18.30;52.90;;;;;;4636950;30;115509;-83
2023/10/24 11:51:37;;;;;;;;;;;18.30;52.70;;;;;;4646720;30;118019;-83
2023/10/24 11:54:05;;;;;;;;;;;18.30;53.00;;;;;;4618961;30;114694;-82
2023/10/24 11:56:32;;;;;;;;;;;18.30;53.10;;;;;;4647755;30;114577;-84
2023/10/24 11:58:59;;;;;;;;;;;18.40;53.10;;;;;;4647223;30;115208;-82
2023/10/24 12:01:33;;;;;;;;;;;18.40;52.90;;;;;;4636789;30;114610;-83
2023/10/24 12:04:00;;;;;;;;;;;18.40;52.80;;;;;;4650650;30;114528;-83
2023/10/24 12:06:28;;;;;;;;;;;18.30;52.90;;;;;;4637550;30;114525;-84
2023/10/24 12:08:55;;;;;;;;;;;18.30;52.00;;;;;;4650131;30;114668;-83
2023/10/24 12:11:22;;;;;;;;;;;18.20;52.00;;;;;;4635914;30;115289;-83
2023/10/24 12:13:49;;;;;;;;;;;18.20;52.40;;;;;;4637747;30;114351;-83
2023/10/24 12:16:16;;;;;;;;;;;18.10;52.50;;;;;;4650460;30;114500;-84
2023/10/24 12:18:43;;;;;;;;;;;18.00;52.20;;;;;;4636101;30;115244;-83
2023/10/24 12:21:11;;;;;;;;;;;18.00;52.50;;;;;;4635243;30;115500;-83
2023/10/24 12:23:38;;;;;;;;;;;18.00;52.90;;;;;;4637914;30;115194;-83
2023/10/24 12:26:05;;;;;;;;;;;18.00;52.90;;;;;;4637304;30;114625;-83
2023/10/24 12:28:33;;;;;;;;;;;18.00;53.00;;;;;;4636158;30;115561;-83
2023/10/24 12:31:00;;;;;;;;;;;18.00;52.80;;;;;;4636104;30;115795;-84
2023/10/24 12:33:28;;;;;;;;;;;18.00;52.80;;;;;;4637044;30;114289;-84
2023/10/24 12:35:55;;;;;;;;;;;17.90;53.00;;;;;;4637779;30;114678;-82
2023/10/24 12:38:27;;;;;;;;;;;17.90;53.20;;;;;;4621757;30;117852;-82
2023/10/24 12:40:54;;;;;;;;;;;17.90;52.80;;;;;;4634928;30;116744;-82
2023/10/24 12:43:21;;;;;;;;;;;17.90;52.90;;;;;;4630086;30;114461;-82
2023/10/24 12:45:49;;;;;;;;;;;17.90;53.20;;;;;;4620251;30;115185;-83
2023/10/24 12:48:16;;;;;;;;;;;17.90;53.30;;;;;;4603225;30;118637;-82
2023/10/24 12:50:47;;;;;;;;;;;17.90;53.20;;;;;;4631736;30;114722;-83
2023/10/24 12:53:14;;;;;;;;;;;17.90;53.30;;;;;;4619755;30;114354;-82
2023/10/24 12:55:41;;;;;;;;;;;17.90;52.90;;;;;;4618733;30;114957;-82
2023/10/24 12:58:08;;;;;;;;;;;17.80;52.90;;;;;;4619645;30;115323;-81
2023/10/24 13:00:36;;;;;;;;;;;17.80;53.30;;;;;;4635612;30;114634;-82
2023/10/24 13:03:03;;;;;;;;;;;17.80;53.80;;;;;;4648859;30;114694;-82
2023/10/24 13:05:46;;;;;;;;;;;17.70;54.20;;;;;;4627252;30;115120;-84
2023/10/24 13:08:14;;;;;;;;;;;17.70;54.50;;;;;;4635099;30;115361;-83
2023/10/24 13:10:41;;;;;;;;;;;17.60;54.60;;;;;;4636519;30;117251;-84
2023/10/24 13:13:09;;;;;;;;;;;17.50;54.70;;;;;;4661535;30;114537;-82
2023/10/24 13:15:36;;;;;;;;;;;17.40;55.00;;;;;;4637714;30;114628;-82
2023/10/24 13:18:03;;;;;;;;;;;17.40;55.20;;;;;;4647884;30;114873;-83
2023/10/24 13:20:30;;;;;;;;;;;17.40;55.50;;;;;;4636102;30;115225;-83
2023/10/24 13:22:57;;;;;;;;;;;17.40;55.60;;;;;;4637980;30;114513;-83
2023/10/24 13:25:25;;;;;;;;;;;17.40;55.80;;;;;;4637276;30;114521;-83
2023/10/24 13:27:53;;;;;;;;;;;17.30;55.90;;;;;;4633860;30;115632;-84
2023/10/24 13:30:20;;;;;;;;;;;17.30;55.90;;;;;;4634230;30;116543;-81
2023/10/24 13:33:03;;;;;;;;;;;17.30;55.90;;;;;;4635611;30;114680;-82
2023/10/24 13:35:30;;;;;;;;;;;17.30;55.60;;;;;;4637296;30;114269;-84
2023/10/24 13:38:02;;;;;;;;;;;17.30;55.30;;;;;;4647778;30;135976;-83
2023/10/24 13:40:29;;;;;;;;;;;17.30;55.00;;;;;;4635530;30;114618;-84
2023/10/24 13:42:56;;;;;;;;;;;17.20;54.70;;;;;;4635430;30;114746;-84
2023/10/24 13:45:26;;;;;;;;;;;17.20;54.60;;;;;;4634973;30;114508;-84
2023/10/24 13:47:53;;;;;;;;;;;17.20;54.90;;;;;;4635462;30;115150;-84
2023/10/24 13:50:20;;;;;;;;;;;17.20;55.00;;;;;;4633468;30;116104;-84
2023/10/24 13:52:48;;;;;;;;;;;17.20;55.10;;;;;;4634243;30;114656;-83
2023/10/24 13:55:16;;;;;;;;;;;17.20;55.00;;;;;;4634625;30;114363;-84
2023/10/24 13:57:43;;;;;;;;;;;17.20;55.00;;;;;;4647135;30;115133;-83
2023/10/24 14:00:11;;;;;;;;;;;17.10;54.80;;;;;;4647367;30;118136;-83
2023/10/24 14:02:38;;;;;;;;;;;17.10;54.90;;;;;;4635051;30;114672;-84
2023/10/24 14:05:06;;;;;;;;;;;17.00;55.00;;;;;;4634599;30;114633;-84
2023/10/24 14:07:33;;;;;;;;;;;17.00;55.00;;;;;;4648116;30;115495;-84
2023/10/24 14:10:01;;;;;;;;;;;17.00;54.90;;;;;;4648029;30;114436;-84